Time;durP1;ratioP1;P1;durP2;ratioP2;P2;SDS_P1;SDS_P2;PMS_P1;PMS_P2;Temp;Humidity;BMP_temperature;BMP_pressure;BME280_temperature;BME280_humidity;BME280_pressure;Samples;Min_cycle;Max_cycle;Signal;HPM_P1;HPM_P2
2023/10/02 00:02:45;;;;;;;17.80;9.25;;;17.30;99.90;;;;;;5046717;28;20784;-64
2023/10/02 00:05:11;;;;;;;16.48;9.05;;;17.20;99.90;;;;;;5046921;28;20402;-65
2023/10/02 00:07:42;;;;;;;17.73;9.57;;;17.30;99.90;;;;;;5049927;28;20811;-65
2023/10/02 00:10:11;;;;;;;17.20;9.30;;;17.30;99.90;;;;;;5047085;28;20834;-65
2023/10/02 00:12:38;;;;;;;16.70;9.15;;;;;;;;;;5050221;28;20414;-66
2023/10/02 00:15:12;;;;;;;17.08;9.18;;;;;;;;;;5049697;28;20422;-65
2023/10/02 00:17:43;;;;;;;17.05;9.35;;;;;;;;;;5049675;28;20409;-64
2023/10/02 00:20:21;;;;;;;16.23;8.55;;;;;;;;;;5050192;28;20979;-65
2023/10/02 00:22:50;;;;;;;15.73;9.20;;;;;;;;;;5046400;28;20437;-65
2023/10/02 00:25:19;;;;;;;16.57;9.17;;;;;;;;;;5050167;28;20770;-65
2023/10/02 00:27:48;;;;;;;15.95;9.10;;;;;;;;;;5049835;28;20501;-65
2023/10/02 00:30:20;;;;;;;15.77;9.25;;;;;;;;;;5053173;28;20467;-65
2023/10/02 00:32:47;;;;;;;16.52;9.13;;;;;;;;;;5050174;28;20772;-65
2023/10/02 00:35:15;;;;;;;17.92;9.02;;;;;;;;;;5053278;28;20478;-65
2023/10/02 00:37:47;;;;;;;15.70;9.20;;;;;;;;;;5053526;28;20417;-65
2023/10/02 00:40:14;;;;;;;15.30;8.90;;;;;;;;;;5053622;28;20452;-65
2023/10/02 00:42:40;;;;;;;16.30;8.93;;;;;;;;;;5052963;28;20420;-65
2023/10/02 00:45:08;;;;;;;18.35;9.48;;;;;;;;;;5053061;28;20478;-65
2023/10/02 00:47:41;;;;;;;18.45;9.52;;;;;;;;;;5052919;28;20891;-65
2023/10/02 00:50:10;;;;;;;15.77;9.15;;;;;;;;;;5051958;28;20911;-66
2023/10/02 00:52:37;;;;;;;17.42;9.25;;;;;;;;;;5054190;28;20508;-65
2023/10/02 00:55:06;;;;;;;17.13;9.10;;;;;;;;;;5050732;28;20437;-65
2023/10/02 00:57:35;;;;;;;15.98;9.10;;;;;;;;;;5052944;28;20424;-65
2023/10/02 01:00:06;;;;;;;18.27;9.10;;;;;;;;;;5052778;28;20444;-65
2023/10/02 01:02:35;;;;;;;16.95;8.85;;;;;;;;;;5052570;28;20504;-65
2023/10/02 01:05:04;;;;;;;17.00;8.93;;;;;;;;;;5052169;28;20409;-64
2023/10/02 01:07:33;;;;;;;16.92;9.20;;;;;;;;;;5052559;28;20911;-65
2023/10/02 01:10:17;;;;;;;15.25;8.20;;;;;;;;;;5052322;28;20495;-65
2023/10/02 01:12:44;;;;;;;14.43;8.50;;;;;;;;;;5049835;28;20406;-64
2023/10/02 01:15:12;;;;;;;16.77;8.90;;;;;;;;;;5050883;28;20425;-63
2023/10/02 01:17:40;;;;;;;17.42;8.82;;;;;;;;;;5052342;28;20987;-66
2023/10/02 01:20:20;;;;;;;16.02;9.18;;;;;;;;;;5052257;28;20421;-64
2023/10/02 01:22:51;;;;;;;16.25;9.23;;;;;;;;;;5052865;28;20408;-66
2023/10/02 01:25:23;;;;;;;17.13;8.88;;;;;;;;;;5048442;28;20413;-65
2023/10/02 01:27:51;;;;;;;16.10;8.60;;;;;;;;;;5052386;28;20810;-65
2023/10/02 01:30:20;;;;;;;15.63;9.10;;;;;;;;;;5048450;28;20492;-63
2023/10/02 01:35:36;;;;;;;15.95;8.85;;;;;;;;;;5050704;28;20437;-64
2023/10/02 01:38:06;;;;;;;18.02;9.55;;;;;;;;;;5051008;28;20417;-66
2023/10/02 01:40:35;;;;;;;15.38;8.70;;;;;;;;;;5051779;28;20409;-65
2023/10/02 01:43:12;;;;;;;16.73;8.65;;;;;;;;;;5051823;28;20409;-64
2023/10/02 01:45:42;;;;;;;17.63;8.73;;;;;;;;;;5051623;28;20540;-65
2023/10/02 01:48:12;;;;;;;16.80;9.02;;;;;;;;;;5052236;28;20424;-65
2023/10/02 01:50:39;;;;;;;17.10;9.20;;;;;;;;;;5051966;28;20427;-65
2023/10/02 01:53:07;;;;;;;16.33;8.95;;;;;;;;;;5053260;28;20769;-65
2023/10/02 01:55:36;;;;;;;18.10;9.50;;;;;;;;;;5051297;28;20847;-65
2023/10/02 01:58:17;;;;;;;16.60;9.07;;;;;;;;;;5051607;28;20763;-65
2023/10/02 02:00:45;;;;;;;19.33;9.33;;;;;;;;;;5048455;28;20406;-64
2023/10/02 02:03:15;;;;;;;16.65;8.88;;;;;;;;;;5051730;28;20441;-66
2023/10/02 02:05:46;;;;;;;16.63;8.87;;;;;;;;;;5048483;28;20405;-65
2023/10/02 02:08:22;;;;;;;15.80;8.45;;;;;;;;;;5051404;28;20405;-65
2023/10/02 02:10:51;;;;;;;17.98;9.15;;;;;;;;;;5051857;28;20409;-66
2023/10/02 02:13:20;;;;;;;15.52;8.82;;;;;;;;;;5051666;28;20811;-65
2023/10/02 02:15:51;;;;;;;16.85;9.23;;;;;;;;;;5051055;28;20441;-66
2023/10/02 02:18:19;;;;;;;17.45;9.52;;;;;;;;;;5051244;28;20448;-65
2023/10/02 02:20:57;;;;;;;17.65;9.77;;;;;;;;;;5051630;28;20486;-66
2023/10/02 02:23:26;;;;;;;15.65;8.88;;;;;;;;;;5049876;28;20405;-65
2023/10/02 02:25:54;;;;;;;16.40;8.80;;;;;;;;;;5051415;28;20786;-64
2023/10/02 02:28:21;;;;;;;16.65;9.10;;;;;;;;;;5051539;28;20415;-64
2023/10/02 02:30:48;;;;;;;15.90;8.80;;;;;;;;;;5053148;28;20958;-63
2023/10/02 02:33:16;;;;;;;16.90;8.70;;;;;;;;;;5053801;28;20471;-65
2023/10/02 02:35:44;;;;;;;18.67;9.38;;;;;;;;;;5050781;28;20508;-63
2023/10/02 02:38:15;;;;;;;16.40;9.00;;;;;;;;;;5050819;28;20463;-64
2023/10/02 02:40:42;;;;;;;17.02;9.75;;;;;;;;;;5050986;28;20409;-65
2023/10/02 02:43:19;;;;;;;17.15;9.20;;;;;;;;;;5050871;28;20818;-64
2023/10/02 02:45:46;;;;;;;16.90;9.20;;;;;;;;;;5050270;28;20496;-65
2023/10/02 02:48:15;;;;;;;17.30;9.23;;;;;;;;;;5050788;28;20405;-65
2023/10/02 02:50:43;;;;;;;16.83;9.07;;;;;;;;;;5050639;28;20500;-65
2023/10/02 02:53:23;;;;;;;17.07;9.17;;;;;;;;;;5050771;28;20417;-64
2023/10/02 02:56:14;;;;;;;16.48;9.13;;;;;;;;;;5050221;28;20509;-63
2023/10/02 02:58:44;;;;;;;15.20;8.85;;;;;;;;;;5047489;28;20410;-64
2023/10/02 03:01:16;;;;;;;16.60;9.15;;;;;;;;;;5050967;28;20405;-63
2023/10/02 03:03:44;;;;;;;20.38;9.75;;;;;;;;;;5047308;28;20410;-65
2023/10/02 03:06:22;;;;;;;17.90;9.50;;;;;;;;;;5050249;28;20413;-64
2023/10/02 03:08:51;;;;;;;17.35;9.43;;;;;;;;;;5048638;28;20441;-64
2023/10/02 03:11:19;;;;;;;17.17;8.98;;;;;;;;;;5050474;28;20409;-65
2023/10/02 03:13:48;;;;;;;15.98;8.85;;;;;;;;;;5050675;28;20467;-64
2023/10/02 03:16:18;;;;;;;17.15;9.30;;;;;;;;;;5049948;28;20417;-64
2023/10/02 03:18:48;;;;;;;16.35;8.88;;;;;;;;;;5050248;28;20418;-64
2023/10/02 03:21:21;;;;;;;16.55;9.50;;;;;;;;;;5050409;28;20417;-64
2023/10/02 03:23:49;;;;;;;17.38;9.13;;;;;;;;;;5053833;28;20417;-64
2023/10/02 03:26:37;;;;;;;15.98;8.98;;;;;;;;;;5048787;28;20811;-64
2023/10/02 03:29:06;;;;;;;16.00;9.00;;;;;;;;;;5049968;28;20443;-63
2023/10/02 03:31:37;;;;;;;18.02;8.85;;;;;;;;;;5050260;28;20417;-64
2023/10/02 03:34:25;;;;;;;17.17;9.37;;;;;;;;;;5048689;28;20741;-63
2023/10/02 03:36:52;;;;;;;16.85;9.43;;;;;;;;;;5047578;28;20409;-65
2023/10/02 03:39:51;;;;;;;17.83;9.32;;;;;;;;;;5049992;28;20453;-65
2023/10/02 03:42:13;;;;;;;17.00;8.93;;;;;;;;;;5049604;28;20461;-64
2023/10/02 03:44:42;;;;;;;16.40;9.27;;;;;;;;;;5049779;28;20497;-64
2023/10/02 03:47:12;;;;;;;17.00;8.98;;;;;;;;;;5048852;28;20896;-64
2023/10/02 03:49:40;;;;;;;16.98;9.10;;;;;;;;;;5049910;28;20417;-63
2023/10/02 03:52:07;;;;;;;18.52;9.05;;;;;;;;;;5048859;28;20435;-63
2023/10/02 03:54:34;;;;;;;18.27;9.27;;;;;;;;;;5048063;28;20451;-64
2023/10/02 03:57:02;;;;;;;16.55;9.45;;;;;;;;;;5049886;28;20409;-64
2023/10/02 03:59:32;;;;;;;19.88;9.98;;;;;;;;;;5049948;28;20467;-64
2023/10/02 04:04:43;;;;;;;16.50;9.10;;;;;;;;;;5053325;28;20405;-63
2023/10/02 04:07:11;;;;;;;18.50;9.50;;;;;;;;;;5053485;28;20416;-63
2023/10/02 04:09:38;;;;;;;17.08;8.80;;;;;;;;;;5053981;28;20436;-63
2023/10/02 04:12:06;;;;;;;17.90;9.30;;;;;;;;;;5049939;28;20420;-65
2023/10/02 04:14:33;;;;;;;17.13;9.75;;;;;;;;;;5053508;28;20792;-64
2023/10/02 04:17:09;;;;;;;18.20;9.63;;;;;;;;;;5053443;28;20420;-64
2023/10/02 04:19:36;;;;;;;16.85;9.52;;;;;;;;;;5053571;28;20413;-64
2023/10/02 04:22:07;;;;;;;16.15;8.98;;;;;;;;;;5049926;28;20451;-65
2023/10/02 04:24:51;;;;;;;17.58;9.20;;;;;;;;;;5051765;28;20401;-66
2023/10/02 04:27:18;;;;;;;17.23;9.80;;;;;;;;;;5053415;28;20775;-65
2023/10/02 04:30:09;;;;;;;16.35;9.35;;;;;;;;;;5049683;28;20886;-65
2023/10/02 04:32:35;;;;;;;17.20;9.15;;;;;;;;;;5050391;28;20412;-65
2023/10/02 04:35:03;;;;;;;19.00;9.43;;;;;;;;;;5053004;28;20544;-65
2023/10/02 04:37:31;;;;;;;15.85;9.02;;;;;;;;;;5053093;28;20802;-64
2023/10/02 04:40:15;;;;;;;19.00;9.95;;;;;;;;;;5053136;28;20417;-65
2023/10/02 04:43:15;;;;;;;17.23;8.77;;;;;;;;;;5051831;28;20409;-65
2023/10/02 04:45:44;;;;;;;16.98;9.40;;;;;;;;;;5049916;28;20417;-64
2023/10/02 04:48:11;;;;;;;18.35;9.48;;;;;;;;;;5053044;28;20492;-64
2023/10/02 04:50:45;;;;;;;16.65;9.27;;;;;;;;;;5052798;28;20510;-64
2023/10/02 04:53:19;;;;;;;16.80;9.20;;;;;;;;;;5053878;28;20833;-65
2023/10/02 04:55:48;;;;;;;18.37;9.40;;;;;;;;;;5052446;28;20945;-64
2023/10/02 04:58:19;;;;;;;16.90;9.20;;;;;;;;;;5052992;28;20417;-65
2023/10/02 05:03:28;;;;;;;17.75;9.30;;;;;;;;;;5050241;28;20401;-64
2023/10/02 05:05:58;;;;;;;16.98;9.13;;;;;;;;;;5052403;28;20872;-64
2023/10/02 05:08:33;;;;;;;17.67;9.65;;;;;;;;;;5052648;28;20444;-64
2023/10/02 05:11:05;;;;;;;17.52;9.35;;;;;;;;;;5049269;28;20409;-65
2023/10/02 05:16:26;;;;;;;17.88;9.82;;;;;;;;;;5052129;28;20508;-64
2023/10/02 05:18:54;;;;;;;18.20;10.07;;;;;;;;;;5052594;28;20414;-64
2023/10/02 05:21:35;;;;;;;17.95;9.70;;;;;;;;;;5052503;28;20491;-64
2023/10/02 05:24:03;;;;;;;17.23;9.48;;;;;;;;;;5057224;28;20888;-64
2023/10/02 05:26:32;;;;;;;18.45;10.05;;;;;;;;;;5052114;28;20413;-65
2023/10/02 05:28:59;;;;;;;19.15;10.20;;;;;;;;;;5052585;28;20524;-64
2023/10/02 05:31:28;;;;;;;18.30;9.90;;;;;;;;;;5051695;28;20432;-64
2023/10/02 05:33:58;;;;;;;19.40;9.70;;;;;;;;;;5051440;28;20784;-65
2023/10/02 05:36:28;;;;;;;18.88;10.15;;;;;;;;;;5050039;28;20531;-64
2023/10/02 05:41:45;;;;;;;17.48;9.75;;;;;;;;;;5051835;28;20397;-64
2023/10/02 05:44:19;;;;;;;16.90;9.88;;;;;;;;;;5051884;28;20413;-64
2023/10/02 05:47:05;;;;;;;16.30;9.35;;;;;;;;;;5047776;28;20479;-65
2023/10/02 05:49:33;;;;;;;16.23;9.18;;;;;;;;;;5048401;28;20840;-64
2023/10/02 05:52:02;;;;;;;18.17;9.23;;;;;;;;;;5051963;28;20409;-64
2023/10/02 05:54:33;;;;;;;16.55;9.63;;;;;;;;;;5054454;28;20775;-64
2023/10/02 05:57:09;;;;;;;21.48;9.88;;;;;;;;;;5052148;28;20413;-65
2023/10/02 05:59:46;;;;;;;18.13;9.70;;;;;;;;;;5050104;28;21056;-65
2023/10/02 06:02:14;;;;;;;17.55;9.30;;;;;;;;;;5050220;28;20409;-65
2023/10/02 06:04:48;;;;;;;18.10;9.75;;;;;;;;;;5053263;28;20837;-65
2023/10/02 06:07:19;;;;;;;16.95;9.48;;;;;;;;;;5050794;28;20413;-64
2023/10/02 06:09:47;;;;;;;17.75;9.60;;;;;;;;;;5053073;28;20413;-65
2023/10/02 06:12:14;;;;;;;16.52;9.40;;;;;;;;;;5052120;28;20411;-65
2023/10/02 06:14:42;;;;;;;18.13;9.43;;;;;;;;;;5051308;28;20970;-66
2023/10/02 06:17:12;;;;;;;18.30;9.52;;;;;;;;;;5047873;28;20409;-65
2023/10/02 06:19:43;;;;;;;16.60;9.07;;;;;;;;;;5051374;28;20500;-65
2023/10/02 06:22:13;;;;;;;19.40;9.65;;;;;;;;;;5047849;28;20405;-64
2023/10/02 06:24:41;;;;;;;17.52;9.60;;;;;;;;;;5051801;28;20445;-64
2023/10/02 06:27:13;;;;;;;18.25;10.48;;;;;;;;;;5049498;28;20471;-65
2023/10/02 06:29:44;;;;;;;18.15;9.82;;;;;;;;;;5051467;28;20443;-64
2023/10/02 06:32:14;;;;;;;18.33;10.40;;;;;;;;;;5051072;28;20443;-65
2023/10/02 06:34:43;;;;;;;18.20;9.88;;;;;;;;;;5051037;28;20417;-64
2023/10/02 06:37:12;;;;;;;17.55;9.70;;;;;;;;;;5051467;28;20421;-65
2023/10/02 06:39:40;;;;;;;17.80;10.07;;;;;;;;;;5051419;28;20409;-65
2023/10/02 06:42:08;;;;;;;16.75;9.45;;;;;;;;;;5050913;28;20409;-64
2023/10/02 06:44:41;;;;;;;18.83;9.75;;;;;;;;;;5050861;28;20410;-64
2023/10/02 06:47:13;;;;;;;17.70;9.52;;;;;;;;;;5048463;28;20467;-62
2023/10/02 06:49:41;;;;;;;17.02;9.77;;;;;;;;;;5046816;28;20830;-64
2023/10/02 06:52:16;;;;;;;17.63;9.32;;;;;;;;;;5051452;28;20475;-62
2023/10/02 06:54:46;;;;;;;18.13;9.55;;;;;;;;;;5050157;28;20471;-65
2023/10/02 06:57:14;;;;;;;18.58;9.25;;;;;;;;;;5050118;28;20413;-64
2023/10/02 06:59:52;;;;;;;20.00;10.00;;;;;;;;;;5049844;28;20417;-64
2023/10/02 07:02:19;;;;;;;17.20;9.75;;;;;;;;;;5051818;28;20933;-62
2023/10/02 07:04:47;;;;;;;19.67;9.55;;;;;;;;;;5050297;28;20482;-62
2023/10/02 07:07:14;;;;;;;17.70;9.63;;;;;;;;;;5050763;28;20516;-62
2023/10/02 07:09:41;;;;;;;17.65;9.77;;;;;;;;;;5052510;28;20421;-62
2023/10/02 07:12:13;;;;;;;17.05;9.40;;;;;;;;;;5049021;28;20413;-63
2023/10/02 07:14:41;;;;;;;17.15;9.20;;;;;;;;;;5050215;28;20451;-63
2023/10/02 07:17:17;;;;;;;18.35;9.65;;;;;;;;;;5049037;28;20428;-62
2023/10/02 07:19:48;;;;;;;19.87;9.77;;;;;;;;;;5045749;28;20463;-64
2023/10/02 07:22:17;;;;;;;18.08;9.55;;;;;;;;;;5049856;28;20439;-62
2023/10/02 07:24:45;;;;;;;18.05;9.95;;;;;;;;;;5048799;28;20497;-62
2023/10/02 07:27:23;;;;;;;20.35;9.93;;;;;;;;;;5048924;28;20413;-61
2023/10/02 07:29:51;;;;;;;17.60;9.48;;;;;;;;;;5046857;28;20413;-62
2023/10/02 07:32:19;;;;;;;19.10;9.73;;;;;;;;;;5048704;28;20413;-63
2023/10/02 07:34:46;;;;;;;19.40;10.30;;;;;;;;;;5049108;28;20473;-63
2023/10/02 07:37:16;;;;;;;19.13;9.88;;;;;;;;;;5052352;28;21236;-63
2023/10/02 07:39:43;;;;;;;19.17;9.77;;;;;;;;;;5053059;28;20424;-63
2023/10/02 07:42:11;;;;;;;19.23;10.00;;;;;;;;;;5052914;28;20413;-65
2023/10/02 07:44:39;;;;;;;18.03;9.90;;;;;;;;;;5049713;28;20846;-63
2023/10/02 07:47:10;;;;;;;17.33;10.07;;;;;;;;;;5052811;28;20550;-62
2023/10/02 07:49:38;;;;;;;19.97;10.07;;;;;;;;;;5049545;28;20413;-62
2023/10/02 07:52:06;;;;;;;17.30;9.95;;;;;;;;;;5052596;28;20860;-63
2023/10/02 07:54:44;;;;;;;17.60;9.73;;;;;;;;;;5056978;28;20439;-62
2023/10/02 07:57:13;;;;;;;18.23;10.13;;;;;;;;;;5052812;28;20538;-62
2023/10/02 07:59:43;;;;;;;19.90;9.47;;;;;;;;;;5056022;28;20418;-63
2023/10/02 08:02:23;;;;;;;15.82;9.30;;;;;;;;;;5052498;28;20420;-61
2023/10/02 08:04:51;;;;;;;18.65;10.27;;;;;;;;;;5052647;28;20475;-61
2023/10/02 08:07:18;;;;;;;17.88;9.77;;;;;;;;;;5053206;28;20404;-62
2023/10/02 08:09:48;;;;;;;19.02;10.02;;;;;;;;;;4993378;28;20758;-60
2023/10/02 08:12:29;;;;;;;18.60;9.38;;;;;;;;;;4990204;28;20418;-60
2023/10/02 08:14:59;;;;;;;18.25;9.90;;;;;;;;;;4993401;28;20414;-60
2023/10/02 08:17:59;;;;;;;16.17;9.38;;;;;;;;;;4993715;28;20461;-61
2023/10/02 08:20:20;;;;;;;18.20;10.05;;;;;;;;;;4992051;28;20412;-63
2023/10/02 08:22:48;;;;;;;20.33;10.07;;;;;;;;;;4993682;28;20903;-63
2023/10/02 08:25:16;;;;;;;18.98;10.45;;;;;;;;;;4992804;28;20431;-63
2023/10/02 08:27:43;;;;;;;20.52;10.43;;;;;;;;;;4993512;28;20788;-63
2023/10/02 08:30:27;;;;;;;18.42;10.15;;;;;;;;;;4993087;28;20418;-63
2023/10/02 08:32:54;;;;;;;19.23;9.80;;;;;;;;;;4992117;28;20480;-61
2023/10/02 08:35:24;;;;;;;19.35;10.10;;;;;;;;;;4989851;28;20413;-62
2023/10/02 08:37:54;;;;;;;16.77;9.60;;;;;;;;;;4993069;28;20861;-62
2023/10/02 08:40:21;;;;;;;18.52;9.85;;;;;;;;;;4989928;28;20426;-62
2023/10/02 08:42:52;;;;;;;19.33;9.93;;;;;;;;;;4993322;28;20418;-63
2023/10/02 08:45:21;;;;;;;19.08;10.23;;;;;;;;;;4992077;28;20499;-62
2023/10/02 08:47:48;;;;;;;19.35;10.52;;;;;;;;;;4994840;28;20418;-62
2023/10/02 08:50:16;;;;;;;17.88;10.30;;;;;;;;;;4992899;28;20429;-61
2023/10/02 08:52:50;;;;;;;19.73;11.25;;;;;;;;;;4994284;28;20418;-64
2023/10/02 08:55:33;;;;;;;21.42;10.95;;;;;;;;;;4993511;28;20419;-61
2023/10/02 08:58:15;;;;;;;21.83;11.00;;;;;;;;;;4991912;28;20417;-62
2023/10/02 09:03:42;;;;;;;23.80;10.30;;;;;;;;;;4988941;28;20532;-65
2023/10/02 09:06:31;;;;;;;20.40;10.52;;;;;;;;;;4994910;28;20469;-63
2023/10/02 09:09:16;;;;;;;20.25;10.82;;;;;;;;;;4990818;28;20454;-63
2023/10/02 09:11:44;;;;;;;19.17;11.40;;;;;;;;;;4992058;28;20477;-62
2023/10/02 09:14:16;;;;;;;22.97;10.73;;;;;;;;;;4994713;28;20426;-63
2023/10/02 09:16:46;;;;;;;20.42;11.25;;;;;;;;;;4994356;28;20466;-63
2023/10/02 09:22:06;;;;;;;20.50;10.90;;;;;;;;;;4993282;28;20402;-63
2023/10/02 09:24:34;;;;;;;19.25;11.00;;;;;;;;;;4993782;28;20429;-64
2023/10/02 09:27:20;;;;;;;19.25;10.65;;;;;;;;;;4995249;28;20916;-63
2023/10/02 09:29:47;;;;;;;19.90;10.43;;;;;;;;;;4990964;28;20445;-63
2023/10/02 09:32:25;;;;;;;21.30;11.23;;;;;;;;;;4992955;28;20829;-63
2023/10/02 09:35:13;;;;;;;19.50;11.00;;;;;;;;;;4990431;28;20809;-62
2023/10/02 09:37:45;;;;;;;20.70;11.05;;;;;;;;;;4992518;28;20864;-62
2023/10/02 09:40:17;;;;;;;19.05;10.80;;;;;;;;;;4990608;28;20424;-63
2023/10/02 09:42:48;;;;;;;20.35;11.30;;;;;;;;;;4992681;28;20944;-64
2023/10/02 09:45:17;;;;;;;22.52;11.30;;;;;;;;;;4993214;28;20766;-63
2023/10/02 09:47:47;;;;;;;20.45;11.10;;;;;;;;;;4993207;28;20502;-63
2023/10/02 09:50:23;;;;;;;19.98;10.70;;;;;;;;;;4993535;28;20418;-63
2023/10/02 09:52:58;;;;;;;20.65;10.95;;;;;;;;;;4989879;28;20418;-63
2023/10/02 09:55:34;;;;;;;20.90;11.23;;;;;;;;;;4996500;28;20486;-63
2023/10/02 09:58:03;;;;;;;19.85;10.82;;;;;;;;;;4995283;28;20434;-63
2023/10/02 10:00:40;;;;;;;20.88;11.52;;;;;;;;;;4993771;28;20441;-63
2023/10/02 10:03:24;;;;;;;21.92;11.63;;;;;;;;;;4991773;28;20838;-65
2023/10/02 10:06:06;;;;;;;20.75;11.45;;;;;;;;;;4993065;28;20415;-63
2023/10/02 10:09:18;;;;;;;22.52;11.77;;;;;;;;;;4992519;28;20421;-65
2023/10/02 10:11:36;;;;;;;19.65;11.02;;;;;;;;;;4989834;28;20445;-65
2023/10/02 10:14:35;;;;;;;21.10;11.40;;;;;;;;;;4991483;28;20853;-65
2023/10/02 10:17:03;;;;;;;19.40;11.18;;;;;;;;;;4989314;28;20430;-65
2023/10/02 10:19:32;;;;;;;22.40;11.45;;;;;;;;;;4991607;28;20422;-66
2023/10/02 10:22:00;;;;;;;21.53;10.90;;;;;;;;;;4991092;28;20449;-64
2023/10/02 10:24:51;;;;;;;21.20;11.45;;;;;;;;;;4991536;28;20454;-65
2023/10/02 10:27:32;;;;;;;18.98;11.00;;;;;;;;;;4990314;28;20422;-66
2023/10/02 10:30:10;;;;;;;19.65;11.10;;;;;;;;;;4991036;28;20407;-65
2023/10/02 10:32:37;;;;;;;20.27;11.15;;;;;;;;;;4991574;28;20793;-65
2023/10/02 10:35:12;;;;;;;20.00;11.05;;;;;;;;;;4991193;28;20460;-65
2023/10/02 10:37:46;;;;;;;19.48;11.10;;;;;;;;;;4991207;28;20446;-65
2023/10/02 10:40:43;;;;;;;21.25;11.15;;;;;;;;;;4990654;28;20429;-65
2023/10/02 10:43:12;;;;;;;22.23;11.33;;;;;;;;;;4987980;28;20422;-66
2023/10/02 10:45:41;;;;;;;22.17;11.43;;;;;;;;;;4990976;28;20784;-66
2023/10/02 10:48:21;;;;;;;21.52;11.68;;;;;;;;;;4987068;28;21301;-66
2023/10/02 10:50:57;;;;;;;25.20;13.68;;;;;;;;;;4990814;28;20418;-65
2023/10/02 10:53:28;;;;;;;21.93;12.00;;;;;;;;;;4990897;28;20921;-66
2023/10/02 10:55:56;;;;;;;20.87;11.67;;;;;;;;;;4987710;28;20418;-64
2023/10/02 10:58:31;;;;;;;20.67;10.93;;;;;;;;;;4990717;28;20433;-65
2023/10/02 11:00:59;;;;;;;20.60;10.90;;;;;;;;;;4990465;28;20418;-66
2023/10/02 11:03:27;;;;;;;20.67;11.50;;;;;;;;;;4990878;28;20453;-64
2023/10/02 11:06:01;;;;;;;21.10;12.03;;;;;;;;;;4990801;28;20486;-66
2023/10/02 11:08:29;;;;;;;20.45;11.23;;;;;;;;;;4990721;28;20429;-66
2023/10/02 11:11:01;;;;;;;24.93;11.77;;;;;;;;;;4990274;28;20426;-65
2023/10/02 11:13:29;;;;;;;21.67;11.13;;;;;;;;;;4990701;28;20509;-66
2023/10/02 11:16:08;;;;;;;20.63;11.18;;;;;;;;;;4990107;28;20763;-66
2023/10/02 11:18:39;;;;;;;21.73;11.23;;;;;;;;;;4987726;28;20446;-65
2023/10/02 11:21:21;;;;;;;20.48;11.40;;;;;;;;;;4990323;28;20424;-66
2023/10/02 11:23:48;;;;;;;20.10;10.43;;;;;;;;;;4989988;28;20761;-65
2023/10/02 11:26:21;;;;;;;21.73;11.80;;;;;;;;;;4990324;28;20489;-65
2023/10/02 11:28:49;;;;;;;20.35;10.88;;;;;;;;;;4990212;28;20428;-66
2023/10/02 11:31:32;;;;;;;20.10;10.45;;;;;;;;;;4990186;28;20429;-66
2023/10/02 11:34:00;;;;;;;21.63;11.25;;;;;;;;;;4987922;28;21013;-66
2023/10/02 11:36:28;;;;;;;21.42;10.80;;;25.30;1.00;;;;;;4990530;28;20458;-66
2023/10/02 11:38:55;;;;;;;21.67;11.77;;;;;;;;;;4990251;28;20422;-65
2023/10/02 11:41:23;;;;;;;21.05;11.38;;;;;;;;;;4990544;28;20418;-66
2023/10/02 11:43:54;;;;;;;19.50;10.27;;;25.40;99.90;;;;;;4990896;28;20429;-65
2023/10/02 11:46:22;;;;;;;20.77;11.20;;;25.20;1.00;;;;;;4990155;28;20425;-66
2023/10/02 11:48:51;;;;;;;18.25;10.15;;;24.90;1.00;;;;;;4990772;28;20944;-66
2023/10/02 11:51:17;;;;;;;17.75;9.82;;;25.50;1.00;;;;;;4990295;28;20484;-65
2023/10/02 11:53:44;;;;;;;17.33;9.80;;;25.10;1.00;;;;;;4990353;28;20484;-66
2023/10/02 11:56:11;;;;;;;17.95;10.02;;;25.30;1.00;;;;;;4990324;28;20414;-66
2023/10/02 11:58:37;;;;;;;18.40;10.43;;;25.20;1.00;;;;;;4991020;28;20453;-64
2023/10/02 12:01:06;;;;;;;19.10;10.10;;;25.40;1.00;;;;;;4986751;28;20414;-66
2023/10/02 12:03:36;;;;;;;18.25;9.70;;;24.60;1.00;;;;;;4990381;28;20426;-68
2023/10/02 12:06:03;;;;;;;17.75;10.13;;;24.90;1.00;;;;;;4989925;28;20418;-66
2023/10/02 12:08:33;;;;;;;17.92;9.60;;;24.80;1.00;;;;;;4990786;28;20418;-66
2023/10/02 12:11:00;;;;;;;17.83;10.13;;;25.50;1.00;;;;;;4989851;28;20419;-65
2023/10/02 12:13:28;;;;;;;20.00;10.43;;;25.30;1.00;;;;;;4990472;28;20446;-69
2023/10/02 12:15:56;;;;;;;17.27;9.63;;;;;;;;;;4985451;28;20486;-63
2023/10/02 12:18:22;;;;;;;19.70;9.98;;;25.70;1.00;;;;;;4989491;28;20510;-63
2023/10/02 12:20:50;;;;;;;17.63;9.48;;;25.80;1.00;;;;;;4989531;28;20427;-64
2023/10/02 12:23:17;;;;;;;18.10;10.13;;;25.60;1.00;;;;;;4992270;28;20414;-64
2023/10/02 12:25:47;;;;;;;20.25;10.63;;;25.90;1.00;;;;;;4993131;28;20460;-65
2023/10/02 12:28:13;;;;;;;19.02;10.18;;;26.20;1.00;;;;;;4993271;28;20937;-63
2023/10/02 12:30:40;;;;;;;17.60;9.85;;;26.20;1.00;;;;;;4993346;28;20414;-64
2023/10/02 12:33:08;;;;;;;18.80;10.55;;;26.00;1.00;;;;;;4993815;28;20866;-66
2023/10/02 12:35:36;;;;;;;18.33;10.57;;;25.80;1.00;;;;;;4993541;28;20457;-65
2023/10/02 12:38:07;;;;;;;19.23;10.07;;;;;;;;;;4993060;28;20492;-66
2023/10/02 12:40:34;;;;;;;19.48;10.63;;;26.00;1.00;;;;;;4993031;28;20473;-65
2023/10/02 12:43:02;;;;;;;18.25;10.38;;;26.20;1.00;;;;;;4993243;28;20422;-64
2023/10/02 12:45:35;;;;;;;19.90;10.88;;;;;;;;;;4989310;28;20501;-65
2023/10/02 12:48:06;;;;;;;17.80;9.65;;;26.50;1.00;;;;;;4993250;28;20406;-64
2023/10/02 12:50:38;;;;;;;18.80;9.57;;;26.00;1.00;;;;;;4989976;28;20410;-63
2023/10/02 12:53:06;;;;;;;17.80;9.52;;;26.30;1.00;;;;;;4993121;28;20482;-64
2023/10/02 12:55:34;;;;;;;17.77;10.02;;;25.90;1.00;;;;;;4992788;28;20414;-63
2023/10/02 12:58:03;;;;;;;18.80;10.23;;;25.70;1.00;;;;;;4992414;28;20519;-64
2023/10/02 13:00:31;;;;;;;17.60;10.35;;;25.90;1.00;;;;;;4992655;28;20418;-64
2023/10/02 13:02:58;;;;;;;16.67;9.63;;;;;;;;;;4992335;28;20923;-64
2023/10/02 13:05:25;;;;;;;19.85;10.32;;;25.80;1.00;;;;;;4988884;28;20418;-63
2023/10/02 13:07:55;;;;;;;19.08;10.43;;;26.20;1.00;;;;;;4992171;28;20446;-63
2023/10/02 13:10:24;;;;;;;18.25;10.05;;;26.30;1.00;;;;;;4992707;28;20454;-64
2023/10/02 13:12:51;;;;;;;17.57;9.50;;;;;;;;;;4991932;28;20540;-63
2023/10/02 13:15:19;;;;;;;18.33;9.75;;;26.30;1.00;;;;;;4992158;28;20418;-64
2023/10/02 13:17:46;;;;;;;17.88;9.43;;;26.60;1.00;;;;;;4990193;28;20430;-64
2023/10/02 13:20:13;;;;;;;18.73;9.88;;;26.60;1.00;;;;;;4992393;28;20465;-65
2023/10/02 13:22:40;;;;;;;17.20;9.40;;;;;;;;;;4989474;28;20477;-64
2023/10/02 13:25:11;;;;;;;16.15;9.60;;;25.60;1.00;;;;;;4991229;28;20885;-64
2023/10/02 13:27:39;;;;;;;17.75;9.45;;;26.20;99.90;;;;;;4989276;28;20416;-65
2023/10/02 13:30:11;;;;;;;16.55;9.80;;;25.90;1.00;;;;;;4993597;28;20415;-65
2023/10/02 13:32:40;;;;;;;17.30;9.90;;;26.20;99.90;;;;;;4988581;28;20425;-64
2023/10/02 13:35:09;;;;;;;17.95;9.63;;;;;;;;;;4992748;28;20515;-65
2023/10/02 13:37:36;;;;;;;16.88;9.07;;;26.30;99.90;;;;;;4988108;28;20426;-64
2023/10/02 13:40:18;;;;;;;18.90;9.90;;;;;;;;;;4991864;28;20588;-65
2023/10/02 13:42:49;;;;;;;17.95;9.45;;;25.70;99.90;;;;;;4989265;28;20437;-65
2023/10/02 13:45:18;;;;;;;17.35;8.90;;;25.30;1.00;;;;;;4991850;28;20426;-65
2023/10/02 13:47:46;;;;;;;16.35;9.23;;;;;;;;;;4991420;28;20469;-64
2023/10/02 13:50:13;;;;;;;17.55;9.77;;;25.70;99.90;;;;;;4991894;28;20414;-66
2023/10/02 13:52:40;;;;;;;15.60;8.80;;;26.10;1.00;;;;;;4991542;28;20925;-65
2023/10/02 13:55:19;;;;;;;15.90;8.82;;;25.60;1.00;;;;;;4991644;28;20419;-65
2023/10/02 13:57:48;;;;;;;16.38;8.85;;;25.90;99.90;;;;;;4991522;28;20430;-66
2023/10/02 14:00:17;;;;;;;16.48;8.82;;;25.50;1.00;;;;;;4991974;28;20489;-66
2023/10/02 14:02:45;;;;;;;15.50;8.80;;;25.50;99.90;;;;;;4991678;28;20492;-66
2023/10/02 14:05:13;;;;;;;15.83;8.23;;;25.20;1.00;;;;;;4992014;28;20503;-65
2023/10/02 14:07:40;;;;;;;14.70;8.48;;;26.00;1.00;;;;;;4991816;28;20631;-63
2023/10/02 14:10:10;;;;;;;15.10;8.20;;;25.60;1.00;;;;;;4992305;28;20494;-65
2023/10/02 14:12:38;;;;;;;14.98;8.15;;;25.80;99.90;;;;;;4991964;28;20529;-65
2023/10/02 14:15:07;;;;;;;15.43;8.40;;;25.50;1.00;;;;;;4991891;28;20422;-65
2023/10/02 14:17:36;;;;;;;14.87;8.13;;;;;;;;;;4991455;28;20498;-64
2023/10/02 14:20:05;;;;;;;13.52;8.32;;;25.50;99.90;;;;;;4991613;28;20423;-66
2023/10/02 14:22:34;;;;;;;13.30;7.68;;;;;;;;;;4991566;28;20422;-66
2023/10/02 14:25:03;;;;;;;14.20;7.75;;;;;;;;;;4991298;28;20449;-66
2023/10/02 14:27:30;;;;;;;15.67;8.50;;;;;;;;;;4990944;28;20834;-69
2023/10/02 14:29:57;;;;;;;15.65;8.48;;;;;;;;;;4991632;28;20418;-66
2023/10/02 14:32:26;;;;;;;14.38;8.00;;;;;;;;;;4991475;28;20411;-66
2023/10/02 14:34:53;;;;;;;15.68;8.35;;;25.00;1.00;;;;;;4991099;28;20415;-65
2023/10/02 14:37:21;;;;;;;14.77;8.50;;;;;;;;;;4991116;28;20805;-65
2023/10/02 14:39:48;;;;;;;14.20;8.40;;;;;;;;;;4991848;28;20785;-65
2023/10/02 14:42:15;;;;;;;16.60;8.85;;;;;;;;;;4991212;28;20460;-65
2023/10/02 14:44:42;;;;;;;16.10;8.57;;;;;;;;;;4991328;28;20421;-66
2023/10/02 14:47:10;;;;;;;14.50;8.32;;;;;;;;;;4991751;28;20418;-63
2023/10/02 14:49:39;;;;;;;14.43;8.63;;;;;;;;;;4991697;28;20909;-64